createdAt,value
2022-10-11T00:00:31.253Z,12.16
2022-10-11T00:03:00.566Z,12.04
2022-10-11T00:05:28.557Z,11.96
2022-10-11T00:07:56.660Z,12.08
2022-10-11T00:10:24.992Z,12.01
2022-10-11T00:12:53.138Z,12.18
2022-10-11T00:15:22.987Z,12.08
2022-10-11T00:17:50.965Z,11.95
2022-10-11T00:20:20.287Z,11.91
2022-10-11T00:22:49.255Z,11.97
2022-10-11T00:25:17.659Z,12.07
2022-10-11T00:27:45.755Z,12.15
2022-10-11T00:30:14.540Z,12.18
2022-10-11T00:32:42.504Z,12.18
2022-10-11T00:35:10.957Z,12.17
2022-10-11T00:37:40.550Z,12.16
2022-10-11T00:40:11.859Z,12.13
2022-10-11T00:42:39.759Z,12.09
2022-10-11T00:45:59.750Z,12.16
2022-10-11T00:48:33.639Z,12.15
2022-10-11T00:51:06.523Z,12.09
2022-10-11T00:53:35.938Z,12.11
2022-10-11T00:56:08.054Z,12.04
2022-10-11T00:58:37.872Z,11.98
2022-10-11T01:01:06.089Z,11.99
2022-10-11T01:03:36.131Z,12.03
2022-10-11T01:06:04.597Z,11.98
2022-10-11T01:08:32.787Z,12.01
2022-10-11T01:11:02.289Z,12.00
2022-10-11T01:13:42.204Z,11.97
2022-10-11T01:16:16.186Z,11.96
2022-10-11T01:18:50.772Z,11.88
2022-10-11T01:21:32.676Z,11.81
2022-10-11T01:24:26.016Z,11.84
2022-10-11T01:27:17.587Z,11.66
2022-10-11T01:29:54.735Z,11.62
2022-10-11T01:32:30.217Z,11.59
2022-10-11T01:35:04.525Z,11.66
2022-10-11T01:37:35.576Z,11.55
2022-10-11T01:40:09.715Z,11.48
2022-10-11T01:42:40.286Z,11.44
2022-10-11T01:45:11.749Z,11.40
2022-10-11T01:47:42.421Z,11.39
2022-10-11T01:50:39.800Z,11.33
2022-10-11T01:53:25.071Z,11.37
2022-10-11T01:55:58.500Z,11.17
2022-10-11T01:58:42.940Z,11.19
2022-10-11T02:01:23.654Z,11.15
2022-10-11T02:04:03.091Z,11.02
2022-10-11T02:06:36.680Z,10.95
2022-10-11T02:09:25.032Z,10.80
2022-10-11T02:12:13.396Z,10.74
2022-10-11T02:14:57.666Z,10.78
2022-10-11T02:17:48.354Z,10.68
2022-10-11T02:20:31.593Z,10.69
2022-10-11T02:23:14.441Z,10.68
2022-10-11T02:25:56.090Z,10.63
2022-10-11T02:28:39.151Z,10.54
2022-10-11T02:31:20.152Z,10.44
2022-10-11T02:34:13.190Z,10.40
2022-10-11T02:37:00.765Z,10.52
2022-10-11T02:39:47.317Z,10.27
2022-10-11T02:42:51.369Z,10.08
2022-10-11T02:45:37.231Z,10.21
2022-10-11T02:48:18.004Z,10.11
2022-10-11T02:50:59.801Z,10.19
2022-10-11T02:53:42.367Z,10.07
2022-10-11T02:56:27.325Z,10.10
2022-10-11T02:59:08.924Z,10.07
2022-10-11T03:01:50.650Z,9.99
2022-10-11T03:04:30.901Z,10.04
2022-10-11T03:17:37.125Z,9.88
2022-10-11T03:20:18.998Z,9.85
2022-10-11T03:23:06.526Z,9.84
2022-10-11T03:25:47.557Z,9.77
2022-10-11T03:28:30.836Z,9.71
2022-10-11T03:31:10.672Z,9.85
2022-10-11T03:33:50.733Z,9.77
2022-10-11T03:36:32.364Z,9.64
2022-10-11T03:39:13.789Z,9.61
2022-10-11T03:41:54.734Z,9.61
2022-10-11T03:44:34.465Z,9.60
2022-10-11T03:47:14.841Z,9.61
2022-10-11T03:49:55.817Z,9.58
2022-10-11T03:52:36.135Z,9.57
2022-10-11T03:55:18.938Z,9.49
2022-10-11T03:58:00.968Z,9.49
2022-10-11T04:00:42.431Z,9.32
2022-10-11T04:03:22.675Z,9.26
2022-10-11T04:06:02.936Z,9.29
2022-10-11T04:08:49.184Z,9.29
2022-10-11T04:11:33.034Z,9.15
2022-10-11T04:14:27.242Z,9.28
2022-10-11T04:17:07.861Z,9.30
2022-10-11T04:19:50.649Z,9.20
2022-10-11T04:22:34.836Z,9.11
2022-10-11T04:25:15.171Z,9.02
2022-10-11T04:27:55.021Z,9.02
2022-10-11T04:30:34.725Z,9.05
2022-10-11T04:33:14.589Z,8.93
2022-10-11T04:35:56.731Z,8.90
2022-10-11T04:38:37.422Z,8.90
2022-10-11T04:41:23.142Z,8.92
2022-10-11T04:44:03.825Z,8.88
2022-10-11T04:46:44.844Z,9.02
2022-10-11T04:49:26.481Z,8.91
2022-10-11T04:52:09.551Z,8.93
2022-10-11T04:54:50.571Z,8.85
2022-10-11T04:57:30.422Z,8.88
2022-10-11T05:00:11.755Z,8.84
2022-10-11T05:02:52.981Z,8.81
2022-10-11T05:05:33.707Z,8.76
2022-10-11T05:08:14.400Z,8.80
2022-10-11T05:10:58.539Z,8.70
2022-10-11T05:13:38.723Z,8.69
2022-10-11T05:16:19.499Z,8.71
2022-10-11T05:18:59.978Z,8.67
2022-10-11T05:21:42.781Z,8.61
2022-10-11T05:24:22.755Z,8.54
2022-10-11T05:27:03.763Z,8.50
2022-10-11T05:30:01.909Z,8.39
2022-10-11T05:32:43.105Z,8.34
2022-10-11T05:35:24.767Z,8.30
2022-10-11T05:38:05.835Z,8.29
2022-10-11T05:40:45.595Z,8.23
2022-10-11T05:43:26.517Z,8.22
2022-10-11T05:46:07.212Z,8.13
2022-10-11T05:48:48.305Z,8.20
2022-10-11T05:51:29.001Z,8.12
2022-10-11T05:54:10.160Z,8.01
2022-10-11T05:56:52.879Z,8.04
2022-10-11T05:59:37.325Z,8.09
2022-10-11T06:02:23.302Z,8.18
2022-10-11T06:05:02.828Z,8.28
2022-10-11T06:07:44.706Z,8.33
2022-10-11T06:10:26.249Z,8.23
2022-10-11T06:13:10.029Z,8.37
2022-10-11T06:16:14.402Z,8.44
2022-10-11T06:19:23.816Z,8.42
2022-10-11T06:22:36.158Z,8.59
2022-10-11T06:25:45.113Z,8.65
2022-10-11T06:28:45.214Z,8.70
2022-10-11T06:31:48.990Z,8.75
2022-10-11T06:34:44.161Z,8.88
2022-10-11T06:37:39.131Z,8.94
2022-10-11T06:40:33.095Z,8.89
2022-10-11T06:43:28.995Z,8.94
2022-10-11T06:46:26.048Z,9.01
2022-10-11T06:49:28.240Z,9.07
2022-10-11T06:52:22.963Z,9.20
2022-10-11T06:55:32.697Z,9.30
2022-10-11T06:58:30.509Z,9.36
2022-10-11T07:01:28.818Z,9.41
2022-10-11T07:04:30.603Z,9.47
2022-10-11T07:07:25.402Z,9.57
2022-10-11T07:10:24.695Z,9.70
2022-10-11T07:13:18.950Z,9.78
2022-10-11T07:16:29.792Z,9.81
2022-10-11T07:19:34.473Z,9.86
2022-10-11T07:22:37.730Z,9.85
2022-10-11T07:25:48.636Z,10.05
2022-10-11T07:28:49.679Z,10.17
2022-10-11T07:32:01.822Z,10.28
2022-10-11T07:35:09.450Z,10.27
2022-10-11T07:38:08.385Z,10.38
2022-10-11T07:41:06.255Z,10.40
2022-10-11T07:44:04.837Z,10.46
2022-10-11T07:47:07.716Z,10.53
2022-10-11T07:50:08.471Z,10.54
2022-10-11T07:53:06.405Z,10.41
2022-10-11T07:56:09.274Z,10.52
2022-10-11T07:59:12.421Z,10.68
2022-10-11T08:02:10.374Z,10.67
2022-10-11T08:05:04.664Z,10.84
2022-10-11T08:08:14.831Z,10.89
2022-10-11T08:11:25.903Z,10.90
2022-10-11T08:14:24.574Z,10.95
2022-10-11T08:17:30.323Z,11.01
2022-10-11T08:20:33.096Z,11.06
2022-10-11T08:23:27.981Z,11.18
2022-10-11T08:26:24.095Z,11.16
2022-10-11T08:29:26.244Z,11.27
2022-10-11T08:32:22.134Z,11.32
2022-10-11T08:35:21.284Z,11.39
2022-10-11T08:38:32.084Z,11.51
2022-10-11T08:41:32.964Z,11.63
2022-10-11T08:45:05.442Z,11.65
2022-10-11T08:48:06.354Z,11.61
2022-10-11T08:51:02.486Z,11.65
2022-10-11T08:54:07.595Z,11.73
2022-10-11T08:57:06.179Z,11.82
2022-10-11T09:00:07.447Z,11.94
2022-10-11T09:03:13.945Z,12.04
2022-10-11T09:06:04.763Z,12.06
2022-10-11T09:09:03.614Z,12.14
2022-10-11T09:11:42.468Z,12.26
2022-10-11T09:14:36.788Z,12.30
2022-10-11T09:17:11.663Z,12.34
2022-10-11T09:20:04.248Z,12.34
2022-10-11T09:22:38.080Z,12.37
2022-10-11T09:25:22.857Z,12.23
2022-10-11T09:28:03.540Z,12.32
2022-10-11T09:30:33.506Z,12.50
2022-10-11T09:33:12.498Z,12.60
2022-10-11T09:35:43.933Z,12.62
2022-10-11T09:38:18.814Z,12.57
2022-10-11T09:41:02.661Z,12.58
2022-10-11T09:43:30.822Z,12.42
2022-10-11T09:45:58.844Z,12.52
2022-10-11T09:48:31.740Z,12.58
2022-10-11T09:51:06.079Z,12.52
2022-10-11T09:53:52.241Z,12.63
2022-10-11T09:56:22.198Z,12.75
2022-10-11T09:58:50.332Z,12.83
2022-10-11T10:01:28.175Z,12.89
2022-10-11T10:04:06.992Z,13.02
2022-10-11T10:06:35.162Z,13.12
2022-10-11T10:09:27.820Z,13.22
2022-10-11T10:11:58.385Z,13.29
2022-10-11T10:14:29.179Z,13.32
2022-10-11T10:17:05.545Z,13.41
2022-10-11T10:19:45.039Z,13.45
2022-10-11T10:22:19.951Z,13.40
2022-10-11T10:24:49.179Z,13.54
2022-10-11T10:27:21.997Z,13.54
2022-10-11T10:30:13.855Z,13.52
2022-10-11T10:32:49.792Z,13.67
2022-10-11T10:35:29.510Z,13.74
2022-10-11T10:38:07.894Z,13.58
2022-10-11T10:40:42.245Z,13.76
2022-10-11T10:43:16.578Z,13.76
2022-10-11T10:46:15.510Z,13.75
2022-10-11T10:49:28.387Z,13.83
2022-10-11T10:51:45.669Z,13.88
2022-10-11T10:54:22.735Z,14.05
2022-10-11T10:56:54.455Z,13.91
2022-10-11T10:59:54.320Z,14.12
2022-10-11T11:02:40.429Z,14.12
2022-10-11T11:05:18.856Z,14.29
2022-10-11T11:07:50.568Z,14.25
2022-10-11T11:10:22.045Z,14.22
2022-10-11T11:13:02.768Z,14.12
2022-10-11T11:15:40.041Z,14.17
2022-10-11T11:18:25.795Z,14.30
2022-10-11T11:21:10.188Z,14.47
2022-10-11T11:23:43.342Z,14.38
2022-10-11T11:26:19.328Z,14.44
2022-10-11T11:29:13.901Z,14.51
2022-10-11T11:32:07.057Z,14.53
2022-10-11T11:34:41.065Z,14.81
2022-10-11T11:37:21.955Z,14.76
2022-10-11T11:39:51.708Z,14.67
2022-10-11T11:42:24.086Z,14.92
2022-10-11T11:44:52.887Z,15.11
2022-10-11T11:47:28.277Z,14.97
2022-10-11T11:50:00.266Z,14.85
2022-10-11T11:52:33.366Z,15.25
2022-10-11T11:55:10.894Z,15.21
2022-10-11T11:57:53.107Z,15.30
2022-10-11T12:00:23.108Z,15.16
2022-10-11T12:02:56.255Z,15.32
2022-10-11T12:05:27.490Z,15.42
2022-10-11T12:07:59.602Z,15.43
2022-10-11T12:10:32.214Z,15.29
2022-10-11T12:13:20.984Z,15.52
2022-10-11T12:16:13.528Z,15.69
2022-10-11T12:18:52.526Z,15.70
2022-10-11T12:21:25.642Z,15.60
2022-10-11T12:23:54.285Z,15.78
2022-10-11T12:26:43.512Z,15.88
2022-10-11T12:29:43.927Z,15.75
2022-10-11T12:32:28.065Z,15.55
2022-10-11T12:35:29.034Z,15.75
2022-10-11T12:38:14.163Z,15.52
2022-10-11T12:40:43.723Z,15.65
2022-10-11T12:43:36.018Z,15.73
2022-10-11T12:46:40.599Z,15.49
2022-10-11T12:49:41.462Z,15.51
2022-10-11T12:52:25.339Z,15.71
2022-10-11T12:55:26.945Z,15.73
2022-10-11T12:58:25.427Z,15.61
2022-10-11T13:01:17.522Z,15.70
2022-10-11T13:03:49.177Z,15.71
2022-10-11T13:06:20.296Z,15.69
2022-10-11T13:08:54.506Z,15.75
2022-10-11T13:11:26.305Z,15.79
2022-10-11T13:13:57.691Z,15.95
2022-10-11T13:16:28.891Z,16.09
2022-10-11T13:18:59.971Z,15.73
2022-10-11T13:21:32.883Z,15.88
2022-10-11T13:24:02.934Z,15.98
2022-10-11T13:26:32.979Z,16.05
2022-10-11T13:29:01.403Z,16.09
2022-10-11T13:31:29.735Z,16.06
2022-10-11T13:33:59.120Z,16.31
2022-10-11T13:36:28.231Z,16.18
2022-10-11T13:38:58.578Z,16.21
2022-10-11T13:41:28.038Z,16.18
2022-10-11T13:43:59.273Z,16.17
2022-10-11T13:46:28.882Z,16.47
2022-10-11T13:49:02.284Z,16.73
2022-10-11T13:51:33.895Z,16.53
2022-10-11T13:54:04.480Z,16.56
2022-10-11T13:56:37.473Z,16.65
2022-10-11T13:59:06.766Z,16.55
2022-10-11T14:01:40.465Z,16.67
2022-10-11T14:04:10.741Z,16.68
2022-10-11T14:06:45.151Z,16.73
2022-10-11T14:09:23.003Z,16.83
2022-10-11T14:11:51.223Z,16.62
2022-10-11T14:14:42.828Z,16.48
2022-10-11T14:17:17.432Z,16.55
2022-10-11T14:19:47.155Z,16.50
2022-10-11T14:22:16.983Z,16.77
2022-10-11T14:24:48.764Z,16.75
2022-10-11T14:27:20.316Z,16.74
2022-10-11T14:30:12.929Z,16.56
2022-10-11T14:32:37.831Z,16.37
2022-10-11T14:35:06.872Z,16.09
2022-10-11T14:37:34.938Z,16.02
2022-10-11T14:40:02.780Z,16.17
2022-10-11T14:42:30.514Z,16.17
2022-10-11T14:44:59.661Z,16.13
2022-10-11T14:47:27.482Z,16.22
2022-10-11T14:49:55.265Z,16.05
2022-10-11T14:52:23.077Z,16.16
2022-10-11T14:54:50.867Z,16.12
2022-10-11T14:57:18.727Z,16.06
2022-10-11T14:59:46.500Z,16.28
2022-10-11T15:02:15.771Z,16.39
2022-10-11T15:04:43.528Z,16.78
2022-10-11T15:07:13.889Z,18.07
2022-10-11T15:09:41.750Z,19.02
2022-10-11T15:12:10.282Z,19.44
2022-10-11T15:14:38.048Z,20.92
2022-10-11T15:17:05.941Z,21.87
2022-10-11T15:19:37.520Z,21.92
2022-10-11T15:22:05.963Z,21.19
2022-10-11T15:24:33.830Z,21.39
2022-10-11T15:27:01.653Z,22.04
2022-10-11T15:29:29.563Z,21.95
2022-10-11T15:31:57.387Z,21.26
2022-10-11T15:34:25.230Z,21.11
2022-10-11T15:36:54.399Z,20.76
2022-10-11T15:39:28.049Z,19.59
2022-10-11T15:41:55.974Z,18.72
2022-10-11T15:44:23.737Z,17.96
2022-10-11T15:46:51.636Z,17.17
2022-10-11T15:49:19.614Z,17.19
2022-10-11T15:51:47.633Z,16.97
2022-10-11T15:54:17.014Z,16.53
2022-10-11T15:56:44.863Z,16.12
2022-10-11T15:59:12.827Z,15.80
2022-10-11T16:01:40.830Z,15.59
2022-10-11T16:04:08.848Z,15.43
2022-10-11T16:06:36.605Z,15.17
2022-10-11T16:09:04.491Z,15.04
2022-10-11T16:11:33.779Z,14.77
2022-10-11T16:14:01.648Z,14.73
2022-10-11T16:16:29.768Z,14.51
2022-10-11T16:18:57.534Z,14.42
2022-10-11T16:21:25.318Z,14.27
2022-10-11T16:23:53.141Z,14.07
2022-10-11T16:26:20.984Z,13.82
2022-10-11T16:28:50.286Z,13.54
2022-10-11T16:31:20.795Z,13.57
2022-10-11T16:33:50.191Z,13.37
2022-10-11T16:36:32.856Z,13.32
2022-10-11T16:39:03.062Z,13.20
2022-10-11T16:41:34.686Z,12.97
2022-10-11T16:44:04.307Z,12.91
2022-10-11T16:46:32.955Z,12.89
2022-10-11T16:49:00.980Z,12.71
2022-10-11T16:51:28.951Z,12.62
2022-10-11T16:53:56.854Z,12.70
2022-10-11T16:56:25.191Z,12.60
2022-10-11T16:58:53.355Z,12.47
2022-10-11T17:01:25.614Z,12.38
2022-10-11T17:03:53.827Z,12.18
2022-10-11T17:06:21.802Z,12.03
2022-10-11T17:08:49.838Z,11.84
2022-10-11T17:11:18.427Z,11.46
2022-10-11T17:13:46.841Z,11.47
2022-10-11T17:16:14.782Z,11.34
2022-10-11T17:18:44.217Z,11.41
2022-10-11T17:21:14.731Z,11.17
2022-10-11T17:23:43.149Z,10.88
2022-10-11T17:26:15.385Z,11.01
2022-10-11T17:28:43.593Z,10.84
2022-10-11T17:31:11.986Z,10.77
2022-10-11T17:33:39.993Z,10.84
2022-10-11T17:36:19.778Z,10.96
2022-10-11T17:38:48.585Z,10.93
2022-10-11T17:41:16.493Z,10.93
2022-10-11T17:43:44.892Z,10.82
2022-10-11T17:46:14.335Z,10.80
2022-10-11T17:48:42.674Z,10.97
2022-10-11T17:51:12.251Z,10.89
2022-10-11T17:53:41.764Z,10.85
2022-10-11T17:56:11.679Z,10.89
2022-10-11T17:58:39.808Z,10.81
2022-10-11T18:01:10.810Z,10.89
2022-10-11T18:03:39.037Z,10.83
2022-10-11T18:06:08.190Z,10.87
2022-10-11T18:08:40.444Z,10.93
2022-10-11T18:11:13.805Z,10.92
2022-10-11T18:13:45.928Z,10.91
2022-10-11T18:16:14.545Z,10.87
2022-10-11T18:18:43.445Z,10.89
2022-10-11T18:21:11.331Z,10.85
2022-10-11T18:23:39.592Z,10.84
2022-10-11T18:26:14.236Z,10.67
2022-10-11T18:28:42.864Z,10.63
2022-10-11T18:31:14.162Z,10.61
2022-10-11T18:33:42.930Z,10.60
2022-10-11T18:36:13.423Z,10.62
2022-10-11T18:38:46.065Z,10.43
2022-10-11T18:41:17.452Z,10.34
2022-10-11T18:43:49.793Z,10.31
2022-10-11T18:46:18.368Z,10.16
2022-10-11T18:48:48.158Z,10.27
2022-10-11T18:51:18.376Z,10.26
2022-10-11T18:53:47.063Z,10.26
2022-10-11T18:56:20.491Z,10.20
2022-10-11T18:58:49.647Z,10.29
2022-10-11T19:01:19.963Z,10.13
2022-10-11T19:03:49.619Z,10.00
2022-10-11T19:06:19.541Z,9.89
2022-10-11T19:08:48.349Z,9.97
2022-10-11T19:11:21.516Z,9.62
2022-10-11T19:13:55.047Z,9.77
2022-10-11T19:16:23.507Z,9.59
2022-10-11T19:18:52.224Z,9.56
2022-10-11T19:21:20.510Z,9.49
2022-10-11T19:23:49.376Z,9.65
2022-10-11T19:26:20.238Z,9.63
2022-10-11T19:28:49.496Z,9.67
2022-10-11T19:31:17.838Z,9.62
2022-10-11T19:33:48.397Z,9.58
2022-10-11T19:36:17.199Z,9.56
2022-10-11T19:38:46.517Z,9.59
2022-10-11T19:41:15.930Z,9.41
2022-10-11T19:43:45.818Z,9.12
2022-10-11T19:46:27.344Z,9.00
2022-10-11T19:49:04.891Z,8.90
2022-10-11T19:51:34.859Z,8.91
2022-10-11T19:54:05.498Z,8.89
2022-10-11T19:56:35.393Z,8.74
2022-10-11T19:59:06.333Z,8.49
2022-10-11T20:01:35.773Z,8.72
2022-10-11T20:04:06.488Z,8.71
2022-10-11T20:06:38.548Z,8.87
2022-10-11T20:09:31.317Z,8.93
2022-10-11T20:11:55.046Z,8.96
2022-10-11T20:14:24.331Z,8.81
2022-10-11T20:16:52.311Z,8.70
2022-10-11T20:19:26.280Z,8.55
2022-10-11T20:21:57.269Z,8.57
2022-10-11T20:24:27.745Z,8.60
2022-10-11T20:26:55.578Z,8.43
2022-10-11T20:29:26.114Z,8.44
2022-10-11T20:31:53.966Z,8.50
2022-10-11T20:34:21.804Z,8.45
2022-10-11T20:36:49.671Z,8.64
2022-10-11T20:39:17.923Z,8.49
2022-10-11T20:41:46.178Z,8.49
2022-10-11T20:44:16.013Z,8.46
2022-10-11T20:46:45.170Z,8.53
2022-10-11T20:49:13.524Z,8.33
2022-10-11T20:51:42.796Z,8.38
2022-10-11T20:54:11.157Z,8.32
2022-10-11T20:56:39.793Z,8.37
2022-10-11T20:59:08.326Z,8.24
2022-10-11T21:01:38.108Z,8.29
2022-10-11T21:04:09.397Z,8.27
2022-10-11T21:06:37.221Z,8.13
2022-10-11T21:09:05.262Z,7.87
2022-10-11T21:11:35.438Z,7.82
2022-10-11T21:14:04.987Z,7.68
2022-10-11T21:16:33.702Z,7.73
2022-10-11T21:19:02.830Z,7.69
2022-10-11T21:21:32.214Z,7.53
2022-10-11T21:24:01.363Z,7.53
2022-10-11T21:26:29.719Z,7.48
2022-10-11T21:28:59.114Z,7.39
2022-10-11T21:31:33.550Z,7.31
2022-10-11T21:34:02.363Z,7.32
2022-10-11T21:36:30.182Z,7.29
2022-10-11T21:38:59.350Z,7.19
2022-10-11T21:41:30.103Z,7.15
2022-10-11T21:43:58.591Z,6.97
2022-10-11T21:46:54.116Z,7.21
2022-10-11T21:49:16.609Z,7.24
2022-10-11T21:51:44.559Z,7.24
2022-10-11T21:54:13.677Z,7.20
2022-10-11T21:56:41.591Z,7.18
2022-10-11T21:59:12.283Z,7.21
2022-10-11T22:01:41.244Z,7.10
2022-10-11T22:04:09.378Z,7.06
2022-10-11T22:06:38.303Z,7.04
2022-10-11T22:09:06.846Z,7.02
2022-10-11T22:11:36.072Z,6.95
2022-10-11T22:14:04.106Z,6.92
2022-10-11T22:16:33.340Z,6.88
2022-10-11T22:19:01.084Z,6.92
2022-10-11T22:21:29.043Z,6.98
2022-10-11T22:23:57.109Z,6.90
2022-10-11T22:26:27.304Z,6.78
2022-10-11T22:28:56.577Z,6.76
2022-10-11T22:31:24.717Z,6.69
2022-10-11T22:33:55.510Z,6.78
2022-10-11T22:36:25.229Z,6.89
2022-10-11T22:38:54.345Z,6.82
2022-10-11T22:41:22.259Z,6.82
2022-10-11T22:43:50.254Z,6.81
2022-10-11T22:46:19.317Z,6.68
2022-10-11T22:48:47.161Z,6.73
2022-10-11T22:51:15.400Z,6.75
2022-10-11T22:53:43.400Z,6.70
2022-10-11T22:56:12.128Z,6.80
2022-10-11T22:58:39.938Z,6.76
2022-10-11T23:01:09.444Z,6.69
2022-10-11T23:03:38.808Z,6.72
2022-10-11T23:06:08.471Z,6.65
2022-10-11T23:08:36.948Z,6.55
2022-10-11T23:11:07.721Z,6.58
2022-10-11T23:13:35.874Z,6.53
2022-10-11T23:16:07.593Z,6.49
2022-10-11T23:18:37.976Z,6.51
2022-10-11T23:21:08.823Z,6.43
2022-10-11T23:23:37.162Z,6.29
2022-10-11T23:26:06.670Z,6.15
2022-10-11T23:28:35.383Z,6.18
2022-10-11T23:31:08.232Z,6.23
2022-10-11T23:33:36.551Z,6.16
2022-10-11T23:36:05.004Z,6.27
2022-10-11T23:38:34.323Z,6.32
2022-10-11T23:41:02.552Z,6.27
2022-10-11T23:43:31.646Z,6.28
2022-10-11T23:46:02.410Z,6.29
2022-10-11T23:48:30.700Z,6.16
2022-10-11T23:51:01.000Z,6.18
2022-10-11T23:53:29.174Z,6.21
2022-10-11T23:55:58.680Z,6.21
2022-10-11T23:58:26.726Z,6.23
